sensor_id;sensor_type;location;lat;lon;timestamp;P1;durP1;ratioP1;P2;durP2;ratioP2
25091;SDS011;13082;52.374;4.946;2023-07-13T00:00:28;12.73;;;3.27;;
25091;SDS011;13082;52.374;4.946;2023-07-13T00:02:54;10.83;;;3.53;;
25091;SDS011;13082;52.374;4.946;2023-07-13T00:05:20;13.27;;;3.30;;
25091;SDS011;13082;52.374;4.946;2023-07-13T00:07:47;7.30;;;2.97;;
25091;SDS011;13082;52.374;4.946;2023-07-13T00:10:13;8.10;;;2.77;;
25091;SDS011;13082;52.374;4.946;2023-07-13T00:12:39;10.83;;;3.20;;
25091;SDS011;13082;52.374;4.946;2023-07-13T00:15:06;19.60;;;3.43;;
25091;SDS011;13082;52.374;4.946;2023-07-13T00:17:37;10.90;;;2.97;;
25091;SDS011;13082;52.374;4.946;2023-07-13T00:20:04;13.50;;;4.27;;
25091;SDS011;13082;52.374;4.946;2023-07-13T00:22:30;12.30;;;3.20;;
25091;SDS011;13082;52.374;4.946;2023-07-13T00:24:56;14.57;;;3.67;;
25091;SDS011;13082;52.374;4.946;2023-07-13T00:27:22;24.30;;;3.87;;
25091;SDS011;13082;52.374;4.946;2023-07-13T00:29:48;14.27;;;3.83;;
25091;SDS011;13082;52.374;4.946;2023-07-13T00:32:13;10.80;;;3.30;;
25091;SDS011;13082;52.374;4.946;2023-07-13T00:34:39;14.20;;;3.37;;
25091;SDS011;13082;52.374;4.946;2023-07-13T00:37:05;15.97;;;4.07;;
25091;SDS011;13082;52.374;4.946;2023-07-13T00:39:32;12.27;;;3.60;;
25091;SDS011;13082;52.374;4.946;2023-07-13T00:41:59;10.43;;;3.80;;
25091;SDS011;13082;52.374;4.946;2023-07-13T00:44:25;8.47;;;3.77;;
25091;SDS011;13082;52.374;4.946;2023-07-13T00:46:51;15.33;;;3.60;;
25091;SDS011;13082;52.374;4.946;2023-07-13T00:49:18;11.33;;;3.63;;
25091;SDS011;13082;52.374;4.946;2023-07-13T00:51:57;13.63;;;3.30;;
25091;SDS011;13082;52.374;4.946;2023-07-13T00:54:38;9.47;;;3.07;;
25091;SDS011;13082;52.374;4.946;2023-07-13T00:57:10;13.43;;;3.20;;
25091;SDS011;13082;52.374;4.946;2023-07-13T00:59:40;10.23;;;2.80;;
25091;SDS011;13082;52.374;4.946;2023-07-13T01:02:09;11.03;;;3.07;;
25091;SDS011;13082;52.374;4.946;2023-07-13T01:04:35;6.97;;;2.47;;
25091;SDS011;13082;52.374;4.946;2023-07-13T01:07:01;4.97;;;2.30;;
25091;SDS011;13082;52.374;4.946;2023-07-13T01:09:27;6.88;;;3.08;;
25091;SDS011;13082;52.374;4.946;2023-07-13T01:11:53;8.13;;;2.17;;
25091;SDS011;13082;52.374;4.946;2023-07-13T01:14:18;5.03;;;1.77;;
25091;SDS011;13082;52.374;4.946;2023-07-13T01:16:45;5.43;;;2.03;;
25091;SDS011;13082;52.374;4.946;2023-07-13T01:19:34;5.70;;;2.00;;
25091;SDS011;13082;52.374;4.946;2023-07-13T01:22:04;8.13;;;2.20;;
25091;SDS011;13082;52.374;4.946;2023-07-13T01:24:36;6.70;;;1.43;;
25091;SDS011;13082;52.374;4.946;2023-07-13T01:27:04;5.03;;;1.53;;
25091;SDS011;13082;52.374;4.946;2023-07-13T01:29:31;2.47;;;1.30;;
25091;SDS011;13082;52.374;4.946;2023-07-13T01:31:58;3.97;;;1.30;;
25091;SDS011;13082;52.374;4.946;2023-07-13T01:34:26;4.00;;;1.70;;
25091;SDS011;13082;52.374;4.946;2023-07-13T01:36:52;5.77;;;1.40;;
25091;SDS011;13082;52.374;4.946;2023-07-13T01:39:22;5.83;;;1.57;;
25091;SDS011;13082;52.374;4.946;2023-07-13T01:41:48;5.50;;;1.77;;
25091;SDS011;13082;52.374;4.946;2023-07-13T01:44:14;2.30;;;1.30;;
25091;SDS011;13082;52.374;4.946;2023-07-13T01:46:39;6.68;;;2.38;;
25091;SDS011;13082;52.374;4.946;2023-07-13T01:49:05;3.60;;;2.03;;
25091;SDS011;13082;52.374;4.946;2023-07-13T01:51:31;6.07;;;1.70;;
25091;SDS011;13082;52.374;4.946;2023-07-13T01:53:57;8.37;;;2.13;;
25091;SDS011;13082;52.374;4.946;2023-07-13T01:56:22;3.17;;;1.43;;
25091;SDS011;13082;52.374;4.946;2023-07-13T01:58:48;4.23;;;1.43;;
25091;SDS011;13082;52.374;4.946;2023-07-13T02:01:14;2.83;;;1.67;;
25091;SDS011;13082;52.374;4.946;2023-07-13T02:03:40;2.08;;;1.65;;
25091;SDS011;13082;52.374;4.946;2023-07-13T02:06:05;5.65;;;1.48;;
25091;SDS011;13082;52.374;4.946;2023-07-13T02:08:32;3.63;;;1.43;;
25091;SDS011;13082;52.374;4.946;2023-07-13T02:10:58;6.00;;;1.70;;
25091;SDS011;13082;52.374;4.946;2023-07-13T02:13:24;6.60;;;1.50;;
25091;SDS011;13082;52.374;4.946;2023-07-13T02:15:50;3.87;;;1.40;;
25091;SDS011;13082;52.374;4.946;2023-07-13T02:18:17;5.10;;;1.90;;
25091;SDS011;13082;52.374;4.946;2023-07-13T02:20:43;4.10;;;1.70;;
25091;SDS011;13082;52.374;4.946;2023-07-13T02:23:08;1.77;;;1.53;;
25091;SDS011;13082;52.374;4.946;2023-07-13T02:25:35;3.40;;;1.60;;
25091;SDS011;13082;52.374;4.946;2023-07-13T02:28:00;2.70;;;1.60;;
25091;SDS011;13082;52.374;4.946;2023-07-13T02:30:26;4.13;;;1.60;;
25091;SDS011;13082;52.374;4.946;2023-07-13T02:32:54;2.80;;;1.80;;
25091;SDS011;13082;52.374;4.946;2023-07-13T02:35:20;3.13;;;1.50;;
25091;SDS011;13082;52.374;4.946;2023-07-13T02:37:46;3.70;;;1.20;;
25091;SDS011;13082;52.374;4.946;2023-07-13T02:40:12;4.83;;;1.53;;
25091;SDS011;13082;52.374;4.946;2023-07-13T02:42:38;3.97;;;1.40;;
25091;SDS011;13082;52.374;4.946;2023-07-13T02:45:04;3.80;;;1.70;;
25091;SDS011;13082;52.374;4.946;2023-07-13T02:47:31;3.67;;;1.65;;
25091;SDS011;13082;52.374;4.946;2023-07-13T02:49:57;4.27;;;1.60;;
25091;SDS011;13082;52.374;4.946;2023-07-13T02:52:23;4.05;;;1.50;;
25091;SDS011;13082;52.374;4.946;2023-07-13T02:54:49;6.83;;;1.77;;
25091;SDS011;13082;52.374;4.946;2023-07-13T02:57:15;4.90;;;1.67;;
25091;SDS011;13082;52.374;4.946;2023-07-13T02:59:41;6.43;;;1.60;;
25091;SDS011;13082;52.374;4.946;2023-07-13T03:02:06;5.27;;;1.53;;
25091;SDS011;13082;52.374;4.946;2023-07-13T03:04:34;3.00;;;1.20;;
25091;SDS011;13082;52.374;4.946;2023-07-13T03:07:00;11.73;;;2.50;;
25091;SDS011;13082;52.374;4.946;2023-07-13T03:09:26;6.73;;;1.57;;
25091;SDS011;13082;52.374;4.946;2023-07-13T03:11:55;2.80;;;1.37;;
25091;SDS011;13082;52.374;4.946;2023-07-13T03:14:24;5.57;;;1.77;;
25091;SDS011;13082;52.374;4.946;2023-07-13T03:16:50;7.27;;;1.60;;
25091;SDS011;13082;52.374;4.946;2023-07-13T03:19:16;7.37;;;1.40;;
25091;SDS011;13082;52.374;4.946;2023-07-13T03:21:42;5.03;;;1.67;;
25091;SDS011;13082;52.374;4.946;2023-07-13T03:24:08;5.30;;;1.50;;
25091;SDS011;13082;52.374;4.946;2023-07-13T03:26:34;4.43;;;1.80;;
25091;SDS011;13082;52.374;4.946;2023-07-13T03:28:59;3.40;;;1.30;;
25091;SDS011;13082;52.374;4.946;2023-07-13T03:31:26;3.83;;;1.53;;
25091;SDS011;13082;52.374;4.946;2023-07-13T03:33:54;3.93;;;1.30;;
25091;SDS011;13082;52.374;4.946;2023-07-13T03:36:22;3.80;;;1.60;;
25091;SDS011;13082;52.374;4.946;2023-07-13T03:38:50;2.97;;;1.57;;
25091;SDS011;13082;52.374;4.946;2023-07-13T03:41:22;3.00;;;1.60;;
25091;SDS011;13082;52.374;4.946;2023-07-13T03:43:48;4.80;;;1.87;;
25091;SDS011;13082;52.374;4.946;2023-07-13T03:46:14;4.07;;;1.50;;
25091;SDS011;13082;52.374;4.946;2023-07-13T03:48:41;2.30;;;1.47;;
25091;SDS011;13082;52.374;4.946;2023-07-13T03:51:09;4.37;;;1.63;;
25091;SDS011;13082;52.374;4.946;2023-07-13T03:53:39;5.33;;;1.70;;
25091;SDS011;13082;52.374;4.946;2023-07-13T03:56:06;2.17;;;1.63;;
25091;SDS011;13082;52.374;4.946;2023-07-13T03:58:33;6.10;;;1.80;;
25091;SDS011;13082;52.374;4.946;2023-07-13T04:01:04;3.87;;;1.50;;
25091;SDS011;13082;52.374;4.946;2023-07-13T04:03:31;3.50;;;1.53;;
25091;SDS011;13082;52.374;4.946;2023-07-13T04:05:58;5.80;;;1.80;;
25091;SDS011;13082;52.374;4.946;2023-07-13T04:08:28;1.50;;;1.40;;
25091;SDS011;13082;52.374;4.946;2023-07-13T04:10:55;5.17;;;1.80;;
25091;SDS011;13082;52.374;4.946;2023-07-13T04:13:22;4.13;;;1.70;;
25091;SDS011;13082;52.374;4.946;2023-07-13T04:15:48;6.73;;;1.67;;
25091;SDS011;13082;52.374;4.946;2023-07-13T04:18:13;3.27;;;2.00;;
25091;SDS011;13082;52.374;4.946;2023-07-13T04:20:39;5.17;;;2.07;;
25091;SDS011;13082;52.374;4.946;2023-07-13T04:23:05;5.97;;;2.10;;
25091;SDS011;13082;52.374;4.946;2023-07-13T04:25:30;10.10;;;2.43;;
25091;SDS011;13082;52.374;4.946;2023-07-13T04:27:56;4.27;;;1.77;;
25091;SDS011;13082;52.374;4.946;2023-07-13T04:30:22;7.77;;;1.97;;
25091;SDS011;13082;52.374;4.946;2023-07-13T04:32:49;7.73;;;1.90;;
25091;SDS011;13082;52.374;4.946;2023-07-13T04:35:17;10.40;;;2.50;;
25091;SDS011;13082;52.374;4.946;2023-07-13T04:37:45;7.33;;;2.03;;
25091;SDS011;13082;52.374;4.946;2023-07-13T04:40:11;11.40;;;2.43;;
25091;SDS011;13082;52.374;4.946;2023-07-13T04:42:37;8.03;;;2.17;;
25091;SDS011;13082;52.374;4.946;2023-07-13T04:45:04;9.77;;;2.27;;
25091;SDS011;13082;52.374;4.946;2023-07-13T04:47:31;8.93;;;2.05;;
25091;SDS011;13082;52.374;4.946;2023-07-13T04:49:57;5.87;;;2.53;;
25091;SDS011;13082;52.374;4.946;2023-07-13T04:52:23;3.00;;;1.83;;
25091;SDS011;13082;52.374;4.946;2023-07-13T04:54:49;5.83;;;2.10;;
25091;SDS011;13082;52.374;4.946;2023-07-13T04:57:14;5.50;;;1.80;;
25091;SDS011;13082;52.374;4.946;2023-07-13T04:59:40;8.23;;;2.40;;
25091;SDS011;13082;52.374;4.946;2023-07-13T05:02:06;6.70;;;1.73;;
25091;SDS011;13082;52.374;4.946;2023-07-13T05:04:32;10.80;;;2.30;;
25091;SDS011;13082;52.374;4.946;2023-07-13T05:06:58;7.50;;;2.30;;
25091;SDS011;13082;52.374;4.946;2023-07-13T05:09:24;4.00;;;2.30;;
25091;SDS011;13082;52.374;4.946;2023-07-13T05:11:49;4.67;;;2.17;;
25091;SDS011;13082;52.374;4.946;2023-07-13T05:14:15;8.67;;;1.77;;
25091;SDS011;13082;52.374;4.946;2023-07-13T05:16:41;5.63;;;2.10;;
25091;SDS011;13082;52.374;4.946;2023-07-13T05:19:07;3.27;;;2.43;;
25091;SDS011;13082;52.374;4.946;2023-07-13T05:21:34;7.77;;;2.00;;
25091;SDS011;13082;52.374;4.946;2023-07-13T05:23:59;4.87;;;2.47;;
25091;SDS011;13082;52.374;4.946;2023-07-13T05:26:25;9.60;;;2.33;;
25091;SDS011;13082;52.374;4.946;2023-07-13T05:28:50;5.13;;;2.77;;
25091;SDS011;13082;52.374;4.946;2023-07-13T05:31:16;9.87;;;3.07;;
25091;SDS011;13082;52.374;4.946;2023-07-13T05:33:42;16.10;;;2.33;;
25091;SDS011;13082;52.374;4.946;2023-07-13T05:36:07;7.57;;;2.50;;
25091;SDS011;13082;52.374;4.946;2023-07-13T05:38:33;10.07;;;2.60;;
25091;SDS011;13082;52.374;4.946;2023-07-13T05:40:59;10.77;;;2.73;;
25091;SDS011;13082;52.374;4.946;2023-07-13T05:43:24;10.67;;;2.73;;
25091;SDS011;13082;52.374;4.946;2023-07-13T05:45:54;5.30;;;2.20;;
25091;SDS011;13082;52.374;4.946;2023-07-13T05:48:20;4.00;;;2.13;;
25091;SDS011;13082;52.374;4.946;2023-07-13T05:50:46;6.90;;;2.33;;
25091;SDS011;13082;52.374;4.946;2023-07-13T05:53:12;9.57;;;2.37;;
25091;SDS011;13082;52.374;4.946;2023-07-13T05:55:45;9.97;;;2.97;;
25091;SDS011;13082;52.374;4.946;2023-07-13T05:58:16;7.37;;;2.50;;
25091;SDS011;13082;52.374;4.946;2023-07-13T06:00:42;8.33;;;2.20;;
25091;SDS011;13082;52.374;4.946;2023-07-13T06:03:08;13.33;;;3.27;;
25091;SDS011;13082;52.374;4.946;2023-07-13T06:05:34;6.67;;;2.60;;
25091;SDS011;13082;52.374;4.946;2023-07-13T06:08:01;7.77;;;2.47;;
25091;SDS011;13082;52.374;4.946;2023-07-13T06:10:27;13.93;;;2.80;;
25091;SDS011;13082;52.374;4.946;2023-07-13T06:12:53;12.37;;;2.67;;
25091;SDS011;13082;52.374;4.946;2023-07-13T06:15:19;4.83;;;2.67;;
25091;SDS011;13082;52.374;4.946;2023-07-13T06:17:44;9.23;;;2.90;;
25091;SDS011;13082;52.374;4.946;2023-07-13T06:20:10;8.50;;;2.83;;
25091;SDS011;13082;52.374;4.946;2023-07-13T06:22:36;8.27;;;2.43;;
25091;SDS011;13082;52.374;4.946;2023-07-13T06:25:01;9.40;;;3.03;;
25091;SDS011;13082;52.374;4.946;2023-07-13T06:27:27;6.50;;;2.53;;
25091;SDS011;13082;52.374;4.946;2023-07-13T06:29:53;4.93;;;1.98;;
25091;SDS011;13082;52.374;4.946;2023-07-13T06:32:19;5.93;;;2.17;;
25091;SDS011;13082;52.374;4.946;2023-07-13T06:34:45;5.53;;;2.07;;
25091;SDS011;13082;52.374;4.946;2023-07-13T06:37:11;4.55;;;1.85;;
25091;SDS011;13082;52.374;4.946;2023-07-13T06:39:37;3.77;;;1.90;;
25091;SDS011;13082;52.374;4.946;2023-07-13T06:42:02;4.47;;;1.70;;
25091;SDS011;13082;52.374;4.946;2023-07-13T06:44:29;6.10;;;2.17;;
25091;SDS011;13082;52.374;4.946;2023-07-13T06:46:55;7.40;;;2.58;;
25091;SDS011;13082;52.374;4.946;2023-07-13T06:49:20;9.15;;;2.72;;
25091;SDS011;13082;52.374;4.946;2023-07-13T06:51:46;5.57;;;2.17;;
25091;SDS011;13082;52.374;4.946;2023-07-13T06:54:12;6.32;;;2.40;;
25091;SDS011;13082;52.374;4.946;2023-07-13T06:56:38;5.80;;;3.10;;
25091;SDS011;13082;52.374;4.946;2023-07-13T06:59:04;6.05;;;2.22;;
25091;SDS011;13082;52.374;4.946;2023-07-13T07:01:30;6.95;;;2.33;;
25091;SDS011;13082;52.374;4.946;2023-07-13T07:03:55;7.25;;;3.53;;
25091;SDS011;13082;52.374;4.946;2023-07-13T07:06:22;3.10;;;1.92;;
25091;SDS011;13082;52.374;4.946;2023-07-13T07:08:49;4.95;;;2.13;;
25091;SDS011;13082;52.374;4.946;2023-07-13T07:11:17;3.42;;;1.98;;
25091;SDS011;13082;52.374;4.946;2023-07-13T07:13:47;9.88;;;2.50;;
25091;SDS011;13082;52.374;4.946;2023-07-13T07:16:13;4.07;;;2.40;;
25091;SDS011;13082;52.374;4.946;2023-07-13T07:18:39;6.82;;;2.40;;
25091;SDS011;13082;52.374;4.946;2023-07-13T07:21:04;5.10;;;2.53;;
25091;SDS011;13082;52.374;4.946;2023-07-13T07:23:30;3.75;;;2.03;;
25091;SDS011;13082;52.374;4.946;2023-07-13T07:25:56;3.58;;;1.92;;
25091;SDS011;13082;52.374;4.946;2023-07-13T07:28:22;4.20;;;2.08;;
25091;SDS011;13082;52.374;4.946;2023-07-13T07:30:48;3.88;;;1.80;;
25091;SDS011;13082;52.374;4.946;2023-07-13T07:33:14;4.95;;;1.83;;
25091;SDS011;13082;52.374;4.946;2023-07-13T07:35:41;7.60;;;2.25;;
25091;SDS011;13082;52.374;4.946;2023-07-13T07:38:07;7.75;;;2.30;;
25091;SDS011;13082;52.374;4.946;2023-07-13T07:40:36;4.43;;;2.00;;
25091;SDS011;13082;52.374;4.946;2023-07-13T07:43:02;4.57;;;2.25;;
25091;SDS011;13082;52.374;4.946;2023-07-13T07:45:28;2.00;;;1.80;;
25091;SDS011;13082;52.374;4.946;2023-07-13T07:47:53;3.22;;;1.88;;
25091;SDS011;13082;52.374;4.946;2023-07-13T07:50:23;4.10;;;2.03;;
25091;SDS011;13082;52.374;4.946;2023-07-13T07:52:53;3.58;;;2.22;;
25091;SDS011;13082;52.374;4.946;2023-07-13T07:55:19;8.00;;;2.60;;
25091;SDS011;13082;52.374;4.946;2023-07-13T07:57:44;4.70;;;2.35;;
25091;SDS011;13082;52.374;4.946;2023-07-13T08:00:10;2.50;;;2.00;;
25091;SDS011;13082;52.374;4.946;2023-07-13T08:02:36;5.05;;;1.80;;
25091;SDS011;13082;52.374;4.946;2023-07-13T08:05:02;6.40;;;2.60;;
25091;SDS011;13082;52.374;4.946;2023-07-13T08:07:29;3.70;;;1.88;;
25091;SDS011;13082;52.374;4.946;2023-07-13T08:09:56;5.78;;;1.92;;
25091;SDS011;13082;52.374;4.946;2023-07-13T08:12:21;5.05;;;1.95;;
25091;SDS011;13082;52.374;4.946;2023-07-13T08:14:49;5.43;;;1.92;;
25091;SDS011;13082;52.374;4.946;2023-07-13T08:17:18;8.23;;;2.30;;
25091;SDS011;13082;52.374;4.946;2023-07-13T08:19:47;3.42;;;1.70;;
25091;SDS011;13082;52.374;4.946;2023-07-13T08:22:13;3.92;;;1.73;;
25091;SDS011;13082;52.374;4.946;2023-07-13T08:24:38;5.40;;;2.15;;
25091;SDS011;13082;52.374;4.946;2023-07-13T08:27:04;6.43;;;2.08;;
25091;SDS011;13082;52.374;4.946;2023-07-13T08:29:30;6.05;;;2.30;;
25091;SDS011;13082;52.374;4.946;2023-07-13T08:31:58;3.35;;;1.90;;
25091;SDS011;13082;52.374;4.946;2023-07-13T08:34:24;3.15;;;2.03;;
25091;SDS011;13082;52.374;4.946;2023-07-13T08:36:49;4.20;;;1.80;;
25091;SDS011;13082;52.374;4.946;2023-07-13T08:39:15;1.65;;;1.52;;
25091;SDS011;13082;52.374;4.946;2023-07-13T08:41:40;5.93;;;2.13;;
25091;SDS011;13082;52.374;4.946;2023-07-13T08:44:07;4.28;;;1.92;;
25091;SDS011;13082;52.374;4.946;2023-07-13T08:46:52;3.28;;;1.90;;
25091;SDS011;13082;52.374;4.946;2023-07-13T08:49:21;6.90;;;2.22;;
25091;SDS011;13082;52.374;4.946;2023-07-13T08:52:26;5.18;;;2.15;;
25091;SDS011;13082;52.374;4.946;2023-07-13T08:54:57;3.03;;;2.00;;
25091;SDS011;13082;52.374;4.946;2023-07-13T08:57:31;3.15;;;1.80;;
25091;SDS011;13082;52.374;4.946;2023-07-13T08:59:58;3.63;;;1.80;;
25091;SDS011;13082;52.374;4.946;2023-07-13T09:02:25;4.70;;;2.20;;
25091;SDS011;13082;52.374;4.946;2023-07-13T09:05:31;3.60;;;2.05;;
25091;SDS011;13082;52.374;4.946;2023-07-13T09:07:58;4.22;;;1.90;;
25091;SDS011;13082;52.374;4.946;2023-07-13T09:10:28;8.10;;;2.92;;
25091;SDS011;13082;52.374;4.946;2023-07-13T09:13:07;5.68;;;2.00;;
25091;SDS011;13082;52.374;4.946;2023-07-13T09:15:41;2.95;;;2.00;;
25091;SDS011;13082;52.374;4.946;2023-07-13T09:18:23;4.70;;;2.28;;
25091;SDS011;13082;52.374;4.946;2023-07-13T09:20:52;5.70;;;1.90;;
25091;SDS011;13082;52.374;4.946;2023-07-13T09:23:22;5.95;;;1.90;;
25091;SDS011;13082;52.374;4.946;2023-07-13T09:25:52;6.30;;;2.03;;
25091;SDS011;13082;52.374;4.946;2023-07-13T09:28:27;3.80;;;1.67;;
25091;SDS011;13082;52.374;4.946;2023-07-13T09:31:04;2.38;;;1.80;;
25091;SDS011;13082;52.374;4.946;2023-07-13T09:33:42;2.42;;;1.60;;
25091;SDS011;13082;52.374;4.946;2023-07-13T09:36:18;4.15;;;2.00;;
25091;SDS011;13082;52.374;4.946;2023-07-13T09:38:44;5.45;;;1.77;;
25091;SDS011;13082;52.374;4.946;2023-07-13T09:41:33;4.35;;;1.85;;
25091;SDS011;13082;52.374;4.946;2023-07-13T09:44:10;9.27;;;1.95;;
25091;SDS011;13082;52.374;4.946;2023-07-13T09:46:44;4.35;;;1.85;;
25091;SDS011;13082;52.374;4.946;2023-07-13T09:49:12;4.43;;;2.13;;
25091;SDS011;13082;52.374;4.946;2023-07-13T09:51:38;4.40;;;1.98;;
25091;SDS011;13082;52.374;4.946;2023-07-13T09:54:05;5.45;;;2.08;;
25091;SDS011;13082;52.374;4.946;2023-07-13T09:56:42;3.17;;;1.80;;
25091;SDS011;13082;52.374;4.946;2023-07-13T09:59:17;3.53;;;1.92;;
25091;SDS011;13082;52.374;4.946;2023-07-13T10:01:44;3.92;;;2.00;;
25091;SDS011;13082;52.374;4.946;2023-07-13T10:04:13;2.92;;;1.77;;
25091;SDS011;13082;52.374;4.946;2023-07-13T10:06:41;3.00;;;1.90;;
25091;SDS011;13082;52.374;4.946;2023-07-13T10:09:08;4.93;;;1.90;;
25091;SDS011;13082;52.374;4.946;2023-07-13T10:11:34;5.55;;;2.22;;
25091;SDS011;13082;52.374;4.946;2023-07-13T10:14:03;3.30;;;2.20;;
25091;SDS011;13082;52.374;4.946;2023-07-13T10:16:34;6.38;;;2.40;;
25091;SDS011;13082;52.374;4.946;2023-07-13T10:19:05;3.70;;;1.90;;
25091;SDS011;13082;52.374;4.946;2023-07-13T10:21:49;2.72;;;2.00;;
25091;SDS011;13082;52.374;4.946;2023-07-13T10:24:23;4.75;;;2.17;;
25091;SDS011;13082;52.374;4.946;2023-07-13T10:29:42;3.80;;;1.92;;
25091;SDS011;13082;52.374;4.946;2023-07-13T10:32:19;2.08;;;1.88;;
25091;SDS011;13082;52.374;4.946;2023-07-13T10:34:48;3.70;;;2.35;;
25091;SDS011;13082;52.374;4.946;2023-07-13T10:37:18;2.30;;;1.58;;
25091;SDS011;13082;52.374;4.946;2023-07-13T10:39:50;2.25;;;1.80;;
25091;SDS011;13082;52.374;4.946;2023-07-13T10:42:21;5.35;;;2.13;;
25091;SDS011;13082;52.374;4.946;2023-07-13T10:45:01;7.47;;;1.98;;
25091;SDS011;13082;52.374;4.946;2023-07-13T10:47:37;3.25;;;1.98;;
25091;SDS011;13082;52.374;4.946;2023-07-13T10:50:04;5.40;;;2.10;;
25091;SDS011;13082;52.374;4.946;2023-07-13T10:55:30;3.65;;;1.83;;
25091;SDS011;13082;52.374;4.946;2023-07-13T10:58:03;8.02;;;2.15;;
25091;SDS011;13082;52.374;4.946;2023-07-13T11:00:42;4.13;;;2.00;;
25091;SDS011;13082;52.374;4.946;2023-07-13T11:03:14;4.97;;;2.20;;
25091;SDS011;13082;52.374;4.946;2023-07-13T11:05:42;5.07;;;2.45;;
25091;SDS011;13082;52.374;4.946;2023-07-13T11:10:48;5.43;;;2.40;;
25091;SDS011;13082;52.374;4.946;2023-07-13T11:17:03;6.15;;;2.10;;
25091;SDS011;13082;52.374;4.946;2023-07-13T11:21:30;5.60;;;2.00;;
25091;SDS011;13082;52.374;4.946;2023-07-13T11:24:03;3.22;;;2.00;;
25091;SDS011;13082;52.374;4.946;2023-07-13T11:31:40;3.15;;;1.63;;
25091;SDS011;13082;52.374;4.946;2023-07-13T11:34:11;2.40;;;1.70;;
25091;SDS011;13082;52.374;4.946;2023-07-13T11:36:42;6.60;;;3.00;;
25091;SDS011;13082;52.374;4.946;2023-07-13T11:41:43;2.78;;;1.75;;
25091;SDS011;13082;52.374;4.946;2023-07-13T11:44:18;4.20;;;1.80;;
25091;SDS011;13082;52.374;4.946;2023-07-13T11:46:53;4.60;;;2.05;;
25091;SDS011;13082;52.374;4.946;2023-07-13T11:49:21;2.13;;;1.92;;
25091;SDS011;13082;52.374;4.946;2023-07-13T11:51:49;3.50;;;1.58;;
25091;SDS011;13082;52.374;4.946;2023-07-13T11:56:55;3.17;;;1.80;;
25091;SDS011;13082;52.374;4.946;2023-07-13T11:59:23;4.90;;;1.75;;
25091;SDS011;13082;52.374;4.946;2023-07-13T12:01:50;6.80;;;1.80;;
25091;SDS011;13082;52.374;4.946;2023-07-13T12:04:23;3.88;;;2.00;;
25091;SDS011;13082;52.374;4.946;2023-07-13T12:07:35;3.90;;;1.80;;
25091;SDS011;13082;52.374;4.946;2023-07-13T12:09:43;3.83;;;1.90;;
25091;SDS011;13082;52.374;4.946;2023-07-13T12:12:17;8.25;;;2.15;;
25091;SDS011;13082;52.374;4.946;2023-07-13T12:14:44;2.50;;;1.80;;
25091;SDS011;13082;52.374;4.946;2023-07-13T12:17:18;3.67;;;1.75;;
25091;SDS011;13082;52.374;4.946;2023-07-13T12:19:45;2.83;;;2.15;;
25091;SDS011;13082;52.374;4.946;2023-07-13T12:22:12;6.38;;;1.90;;
25091;SDS011;13082;52.374;4.946;2023-07-13T12:24:40;4.88;;;2.97;;
25091;SDS011;13082;52.374;4.946;2023-07-13T12:27:13;3.30;;;1.83;;
25091;SDS011;13082;52.374;4.946;2023-07-13T12:29:58;4.70;;;2.33;;
25091;SDS011;13082;52.374;4.946;2023-07-13T12:32:28;3.70;;;2.42;;
25091;SDS011;13082;52.374;4.946;2023-07-13T12:35:03;6.72;;;2.03;;
25091;SDS011;13082;52.374;4.946;2023-07-13T12:37:41;2.88;;;1.90;;
25091;SDS011;13082;52.374;4.946;2023-07-13T12:40:17;6.47;;;2.40;;
25091;SDS011;13082;52.374;4.946;2023-07-13T12:42:46;2.60;;;2.08;;
25091;SDS011;13082;52.374;4.946;2023-07-13T12:45:20;2.53;;;2.00;;
25091;SDS011;13082;52.374;4.946;2023-07-13T12:47:49;4.75;;;3.10;;
25091;SDS011;13082;52.374;4.946;2023-07-13T12:50:20;2.67;;;2.20;;
25091;SDS011;13082;52.374;4.946;2023-07-13T12:52:54;3.72;;;1.95;;
25091;SDS011;13082;52.374;4.946;2023-07-13T12:55:26;2.88;;;2.05;;
25091;SDS011;13082;52.374;4.946;2023-07-13T12:57:54;4.35;;;1.75;;
25091;SDS011;13082;52.374;4.946;2023-07-13T13:03:18;6.22;;;1.98;;
25091;SDS011;13082;52.374;4.946;2023-07-13T13:05:58;3.83;;;1.83;;
25091;SDS011;13082;52.374;4.946;2023-07-13T13:08:28;4.63;;;2.00;;
25091;SDS011;13082;52.374;4.946;2023-07-13T13:10:54;8.80;;;2.30;;
25091;SDS011;13082;52.374;4.946;2023-07-13T13:13:19;6.00;;;2.42;;
25091;SDS011;13082;52.374;4.946;2023-07-13T13:15:45;6.50;;;2.28;;
25091;SDS011;13082;52.374;4.946;2023-07-13T13:18:18;4.68;;;2.20;;
25091;SDS011;13082;52.374;4.946;2023-07-13T13:20:45;5.88;;;2.10;;
25091;SDS011;13082;52.374;4.946;2023-07-13T13:23:15;4.35;;;2.05;;
25091;SDS011;13082;52.374;4.946;2023-07-13T13:25:43;6.18;;;2.42;;
25091;SDS011;13082;52.374;4.946;2023-07-13T13:28:16;5.85;;;2.53;;
25091;SDS011;13082;52.374;4.946;2023-07-13T13:30:48;5.93;;;2.25;;
25091;SDS011;13082;52.374;4.946;2023-07-13T13:33:16;5.15;;;2.25;;
25091;SDS011;13082;52.374;4.946;2023-07-13T13:35:43;5.93;;;2.40;;
25091;SDS011;13082;52.374;4.946;2023-07-13T13:38:10;4.28;;;2.60;;
25091;SDS011;13082;52.374;4.946;2023-07-13T13:40:40;3.10;;;2.30;;
25091;SDS011;13082;52.374;4.946;2023-07-13T13:43:14;4.07;;;2.45;;
25091;SDS011;13082;52.374;4.946;2023-07-13T13:45:44;3.25;;;2.13;;
25091;SDS011;13082;52.374;4.946;2023-07-13T13:48:18;3.80;;;2.08;;
25091;SDS011;13082;52.374;4.946;2023-07-13T13:50:47;6.13;;;1.95;;
25091;SDS011;13082;52.374;4.946;2023-07-13T13:53:14;4.82;;;2.30;;
25091;SDS011;13082;52.374;4.946;2023-07-13T13:55:40;3.55;;;1.80;;
25091;SDS011;13082;52.374;4.946;2023-07-13T13:58:07;3.45;;;2.22;;
25091;SDS011;13082;52.374;4.946;2023-07-13T14:00:34;3.28;;;2.10;;
25091;SDS011;13082;52.374;4.946;2023-07-13T14:03:00;2.58;;;1.90;;
25091;SDS011;13082;52.374;4.946;2023-07-13T14:05:26;4.03;;;1.70;;
25091;SDS011;13082;52.374;4.946;2023-07-13T14:07:52;2.88;;;1.95;;
25091;SDS011;13082;52.374;4.946;2023-07-13T14:10:19;7.57;;;2.30;;
25091;SDS011;13082;52.374;4.946;2023-07-13T14:12:46;5.32;;;2.10;;
25091;SDS011;13082;52.374;4.946;2023-07-13T14:15:25;4.80;;;2.40;;
25091;SDS011;13082;52.374;4.946;2023-07-13T14:17:53;2.95;;;2.40;;
25091;SDS011;13082;52.374;4.946;2023-07-13T14:20:19;3.08;;;1.90;;
25091;SDS011;13082;52.374;4.946;2023-07-13T14:22:48;2.92;;;2.58;;
25091;SDS011;13082;52.374;4.946;2023-07-13T14:25:15;3.88;;;2.30;;
25091;SDS011;13082;52.374;4.946;2023-07-13T14:27:42;6.43;;;2.20;;
25091;SDS011;13082;52.374;4.946;2023-07-13T14:30:16;3.20;;;2.22;;
25091;SDS011;13082;52.374;4.946;2023-07-13T14:32:46;2.60;;;2.05;;
25091;SDS011;13082;52.374;4.946;2023-07-13T14:35:14;5.70;;;2.10;;
25091;SDS011;13082;52.374;4.946;2023-07-13T14:37:41;2.53;;;1.80;;
25091;SDS011;13082;52.374;4.946;2023-07-13T14:40:14;3.63;;;1.65;;
25091;SDS011;13082;52.374;4.946;2023-07-13T14:42:42;2.17;;;1.60;;
25091;SDS011;13082;52.374;4.946;2023-07-13T14:45:15;2.47;;;2.10;;
25091;SDS011;13082;52.374;4.946;2023-07-13T14:47:42;3.13;;;2.58;;
25091;SDS011;13082;52.374;4.946;2023-07-13T14:50:29;3.63;;;1.98;;
25091;SDS011;13082;52.374;4.946;2023-07-13T14:52:57;2.22;;;2.03;;
25091;SDS011;13082;52.374;4.946;2023-07-13T14:55:22;2.63;;;1.90;;
25091;SDS011;13082;52.374;4.946;2023-07-13T14:57:51;3.08;;;1.95;;
25091;SDS011;13082;52.374;4.946;2023-07-13T15:00:18;4.93;;;1.88;;
25091;SDS011;13082;52.374;4.946;2023-07-13T15:02:50;2.35;;;1.90;;
25091;SDS011;13082;52.374;4.946;2023-07-13T15:05:20;4.38;;;2.00;;
25091;SDS011;13082;52.374;4.946;2023-07-13T15:07:51;4.20;;;2.20;;
25091;SDS011;13082;52.374;4.946;2023-07-13T15:10:22;5.15;;;2.45;;
25091;SDS011;13082;52.374;4.946;2023-07-13T15:12:50;3.90;;;2.38;;
25091;SDS011;13082;52.374;4.946;2023-07-13T15:15:17;3.13;;;2.38;;
25091;SDS011;13082;52.374;4.946;2023-07-13T15:17:43;2.95;;;2.30;;
25091;SDS011;13082;52.374;4.946;2023-07-13T15:22:42;4.80;;;2.70;;